Smithville, Arkansas
Current Conditions -  °F | °C
As of 4:35 AM on Friday 24 Oct 2014 (Local Time) from KARG Reporting Station
Broken Clouds Broken Clouds  
Wind Chill:   Ceiling: 4700
Heat Index:   Visibility: 5mi
Dew Point:   Wind: 3mph
Humidity: 87%   Direction: 150°SSE
Pressure: 30.14"   Gusts: NA
Location:  36.08°N, 91.3°W
Report Text: KARG 240935Z AUTO 15003KT 5SM BKN047 07/05 A3014 RMK AO1
Loading
Personal Weather Stations






























Interactive Weather Map
Tropical Storm Tracking
New forecast layout! Learn more

10-Day Weather Forecast

Advertisements
Track Severe Weather on mobile